July 5, 2022

Time Code Weather Temp. Visibility Ceiling Wind METAR/SPECI
7:50 pm
V
68 °F 6¼ mi+ - 300° 300° 8 kt METAR EDDG 051750Z 30008KT 260V340 CAVOK 20/09 Q1022 NOSIG
7:20 pm
V
68 °F 6¼ mi+ - 320° 320° 10 kt METAR EDDG 051720Z 32010KT 280V360 CAVOK 20/09 Q1022 NOSIG
6:50 pm
V
68 °F 6¼ mi+ - 300° 300° 9 kt METAR EDDG 051650Z 30009KT 280V350 CAVOK 20/09 Q1022 NOSIG
6:20 pm
V
70 °F 6¼ mi+ - 290° 290° 13 kt METAR EDDG 051620Z 29013KT 260V320 CAVOK 21/10 Q1022 NOSIG
5:50 pm
V
70 °F 6¼ mi+ - 310° 310° 7 kt METAR EDDG 051550Z 31007KT 250V350 CAVOK 21/10 Q1021 NOSIG
5:20 pm
V
70 °F 6¼ mi+ - 290° 290° 12 kt METAR EDDG 051520Z 29012KT CAVOK 21/09 Q1021 NOSIG
4:50 pm
V
72 °F 6¼ mi+ - 300° 300° 10 kt METAR EDDG 051450Z 30010KT 270V330 CAVOK 22/08 Q1021 NOSIG
4:20 pm
V
72 °F 6¼ mi+ - 290° 290° 9 kt METAR EDDG 051420Z 29009KT 260V360 CAVOK 22/08 Q1021 NOSIG
3:50 pm
V
73 °F 6¼ mi+ - 250° 250° 12 kt METAR EDDG 051350Z 25012KT CAVOK 23/07 Q1021 NOSIG
3:20 pm
V
73 °F 6¼ mi+ - 250° 250° 9 kt METAR EDDG 051320Z 25009KT 220V290 CAVOK 23/07 Q1021 NOSIG
2:50 pm
V
72 °F 6¼ mi+ - Var Var 7 kt METAR EDDG 051250Z VRB07KT CAVOK 22/07 Q1021 NOSIG
2:20 pm
V
73 °F 6¼ mi+ - 250° 250° 10 kt METAR EDDG 051220Z 25010KT 220V290 CAVOK 23/06 Q1021 NOSIG
1:50 pm
V
72 °F 6¼ mi+ - 250° 250° 9 kt METAR EDDG 051150Z 25009KT 190V320 CAVOK 22/07 Q1022 NOSIG
1:20 pm
V
70 °F 6¼ mi+ - 260° 260° 11 kt METAR EDDG 051120Z 26011KT CAVOK 21/07 Q1022 NOSIG
12:50 pm
V
70 °F 6¼ mi+ - 280° 280° 9 kt METAR EDDG 051050Z 28009KT 220V330 CAVOK 21/07 Q1022 NOSIG
12:20 pm
V
72 °F 6¼ mi+ - 280° 280° 8 kt METAR EDDG 051020Z 28008KT 250V320 CAVOK 22/08 Q1022 NOSIG
11:50 am
V
70 °F 6¼ mi+ - Var Var 6 - 17 kt METAR EDDG 050950Z VRB06G17KT CAVOK 21/07 Q1022 NOSIG
11:20 am
V
68 °F 6¼ mi+ - 280° 280° 7 - 17 kt METAR EDDG 050920Z 28007G17KT 230V340 CAVOK 20/07 Q1022 NOSIG
10:50 am
V
68 °F 6¼ mi+ - 270° 270° 6 kt METAR EDDG 050850Z 27006KT 190V340 9999 FEW048 20/07 Q1022 NOSIG
10:20 am
V
68 °F 6¼ mi+ - 270° 270° 6 kt METAR EDDG 050820Z 27006KT 200V360 9999 FEW044 20/08 Q1022 NOSIG
9:50 am
V
66 °F 6¼ mi+ - 220° 220° 5 kt METAR EDDG 050750Z 22005KT 170V260 CAVOK 19/10 Q1022 NOSIG
9:20 am
V
64 °F 6¼ mi+ - 240° 240° 5 kt METAR EDDG 050720Z 24005KT 200V280 CAVOK 18/10 Q1022 NOSIG
8:50 am
V
63 °F 6¼ mi+ - 260° 260° 4 kt METAR EDDG 050650Z 26004KT 220V290 CAVOK 17/11 Q1022 NOSIG
8:20 am
V
63 °F 6¼ mi+ - Var Var 2 kt METAR EDDG 050620Z VRB02KT 9999 FEW045 17/11 Q1022 NOSIG
7:50 am
V
61 °F 6¼ mi+ - Var Var 2 kt METAR EDDG 050550Z VRB02KT 9999 FEW045 16/11 Q1021 NOSIG
7:20 am
V
61 °F 6¼ mi+ - Var Var 2 kt METAR EDDG 050520Z VRB02KT 9999 FEW046 16/11 Q1021 NOSIG
6:50 am
V
57 °F 6¼ mi+ - Var Var 2 kt METAR EDDG 050450Z VRB02KT 9999 FEW044 14/10 Q1021 NOSIG
6:20 am
V
54 °F 6¼ mi+ - 180° 180° 1 kt METAR EDDG 050420Z 18001KT CAVOK 12/10 Q1021 NOSIG
5:50 am
V
52 °F 6¼ mi+ - Var Var 1 kt METAR EDDG 050350Z VRB01KT CAVOK 11/10 Q1021 NOSIG
5:20 am
V
52 °F 6¼ mi+ - Var Var 2 kt METAR EDDG 050320Z VRB02KT CAVOK 11/09 Q1021 NOSIG
4:50 am
V
52 °F 6¼ mi+ - 290° 290° 1 kt METAR EDDG 050250Z 29001KT CAVOK 11/10 Q1021 NOSIG
4:20 am
V
52 °F 6¼ mi+ - Var Var 2 kt METAR EDDG 050220Z VRB02KT CAVOK 11/10 Q1021 NOSIG
3:50 am
V
54 °F 6¼ mi+ - Var Var 1 kt METAR EDDG 050150Z VRB01KT 9999 FEW047 12/10 Q1021 NOSIG
3:20 am
V
54 °F 6¼ mi+ - 260° 260° 2 kt METAR EDDG 050120Z 26002KT 9999 FEW047 12/10 Q1021 NOSIG
2:50 am
V
55 °F 6¼ mi+ - 250° 250° 1 kt METAR EDDG 050050Z 25001KT 9999 FEW047 13/10 Q1021 NOSIG
2:20 am
V
54 °F 6¼ mi+ - Var Var 1 kt METAR EDDG 050020Z VRB01KT 9999 FEW045 12/10 Q1021 NOSIG
1:50 am
V
55 °F 6¼ mi+ - 280° 280° 1 kt METAR EDDG 042350Z 28001KT 9999 FEW049 13/10 Q1021 NOSIG
1:20 am
V
54 °F 6¼ mi+ - 260° 260° 1 kt METAR EDDG 042320Z 26001KT CAVOK 12/10 Q1021 NOSIG
12:50 am
V
55 °F 6¼ mi+ - 260° 260° 1 kt METAR EDDG 042250Z 26001KT CAVOK 13/10 Q1020 NOSIG
12:20 am
V
57 °F 6¼ mi+ - Var Var 1 kt METAR EDDG 042220Z VRB01KT CAVOK 14/10 Q1020 NOSIG

July 4, 2022

Time Code Weather Temp. Visibility Ceiling Wind METAR/SPECI
11:50 pm
V
57 °F 6¼ mi+ - 340° 340° 2 kt METAR EDDG 042150Z 34002KT CAVOK 14/09 Q1020 NOSIG
11:20 pm
V
61 °F 6¼ mi+ - 310° 310° 3 kt METAR EDDG 042120Z 31003KT CAVOK 16/10 Q1020 NOSIG
10:50 pm
V
61 °F 6¼ mi+ - 330° 330° 2 kt METAR EDDG 042050Z 33002KT CAVOK 16/10 Q1020 NOSIG
10:20 pm
V
64 °F 6¼ mi+ - 340° 340° 3 kt METAR EDDG 042020Z 34003KT CAVOK 18/10 Q1020 NOSIG
9:50 pm
V
66 °F 6¼ mi+ - 350° 350° 6 kt METAR EDDG 041950Z 35006KT CAVOK 19/10 Q1019 NOSIG
9:20 pm
V
68 °F 6¼ mi+ - 340° 340° 8 kt METAR EDDG 041920Z 34008KT CAVOK 20/10 Q1019 NOSIG
8:50 pm
V
70 °F 6¼ mi+ - 320° 320° 6 kt METAR EDDG 041850Z 32006KT 280V350 CAVOK 21/11 Q1019 NOSIG
8:20 pm
V
72 °F 6¼ mi+ - 300° 300° 8 kt METAR EDDG 041820Z 30008KT 270V340 CAVOK 22/10 Q1018 NOSIG
7:50 pm
V
73 °F 6¼ mi+ - 270° 270° 7 kt METAR EDDG 041750Z 27007KT CAVOK 23/10 Q1018 NOSIG
7:20 pm
V
75 °F 6¼ mi+ - 260° 260° 8 kt METAR EDDG 041720Z 26008KT 230V290 CAVOK 24/10 Q1018 NOSIG
6:50 pm
V
73 °F 6¼ mi+ - 280° 280° 7 kt METAR EDDG 041650Z 28007KT CAVOK 23/10 Q1018 NOSIG
6:20 pm
V
75 °F 6¼ mi+ - 270° 270° 8 kt METAR EDDG 041620Z 27008KT 240V310 CAVOK 24/11 Q1018 NOSIG
5:50 pm
V
75 °F 6¼ mi+ - 260° 260° 10 kt METAR EDDG 041550Z 26010KT 220V310 CAVOK 24/11 Q1018 NOSIG
5:20 pm
V
73 °F 6¼ mi+ - 260° 260° 10 kt METAR EDDG 041520Z 26010KT 230V310 CAVOK 23/10 Q1019 NOSIG
4:50 pm
V
73 °F 6¼ mi+ - 290° 290° 11 kt METAR EDDG 041450Z 29011KT 260V340 9999 SCT048 23/11 Q1019 NOSIG
4:20 pm
V
75 °F 6¼ mi+ - 270° 270° 11 kt METAR EDDG 041420Z 27011KT 230V320 CAVOK 24/11 Q1019 NOSIG
3:50 pm
V
75 °F 6¼ mi+ - 260° 260° 12 kt METAR EDDG 041350Z 26012KT CAVOK 24/10 Q1019 NOSIG
3:20 pm
V
73 °F 6¼ mi+ - 270° 270° 13 kt METAR EDDG 041320Z 27013KT 240V300 CAVOK 23/09 Q1019 NOSIG
2:50 pm
V
73 °F 6¼ mi+ - 240° 240° 12 kt METAR EDDG 041250Z 24012KT 210V280 CAVOK 23/09 Q1019 NOSIG
2:20 pm
V
72 °F 6¼ mi+ - 240° 240° 10 kt METAR EDDG 041220Z 24010KT 190V300 CAVOK 22/10 Q1019 NOSIG
1:50 pm
V
72 °F 6¼ mi+ - 240° 240° 12 kt METAR EDDG 041150Z 24012KT 190V280 CAVOK 22/09 Q1019 NOSIG
1:20 pm
V
72 °F 6¼ mi+ - 270° 270° 10 kt METAR EDDG 041120Z 27010KT 240V300 CAVOK 22/10 Q1020 NOSIG
12:50 pm
V
72 °F 6¼ mi+ - 250° 250° 10 kt METAR EDDG 041050Z 25010KT 210V300 CAVOK 22/09 Q1020 NOSIG
12:20 pm
V
72 °F 6¼ mi+ - 240° 240° 11 kt METAR EDDG 041020Z 24011KT 200V310 9999 SCT048 22/09 Q1020 NOSIG
11:50 am
V
70 °F 6¼ mi+ - 260° 260° 10 kt METAR EDDG 040950Z 26010KT 9999 FEW044 21/09 Q1020 NOSIG
11:20 am
V
70 °F 6¼ mi+ - 250° 250° 10 kt METAR EDDG 040920Z 25010KT 9999 FEW040 21/09 Q1020 NOSIG
10:50 am
V
68 °F 6¼ mi+ - 240° 240° 7 kt METAR EDDG 040850Z 24007KT 190V280 9999 FEW036 20/10 Q1020 NOSIG
10:20 am
V
68 °F 6¼ mi+ - 220° 220° 6 kt METAR EDDG 040820Z 22006KT 180V260 9999 FEW029 20/10 Q1020 NOSIG
9:50 am
V
68 °F 6¼ mi+ - 210° 210° 6 kt METAR EDDG 040750Z 21006KT 170V260 9999 FEW028 20/11 Q1020 NOSIG
9:20 am
V
64 °F 6¼ mi+ - 220° 220° 8 kt METAR EDDG 040720Z 22008KT 170V260 9999 FEW026 18/11 Q1020 NOSIG
8:50 am
V
64 °F 6¼ mi+ - 210° 210° 5 kt METAR EDDG 040650Z 21005KT 180V310 9999 FEW020 18/11 Q1020 NOSIG
8:20 am
V
63 °F 6¼ mi+ - 210° 210° 3 kt METAR EDDG 040620Z 21003KT 140V310 CAVOK 17/12 Q1020 NOSIG
7:50 am
V
61 °F 6¼ mi+ - Var Var 2 kt METAR EDDG 040550Z VRB02KT CAVOK 16/12 Q1020 NOSIG
7:20 am
V
59 °F 6¼ mi+ - 210° 210° 3 kt METAR EDDG 040520Z 21003KT 170V270 CAVOK 15/12 Q1020 NOSIG
6:50 am
V
57 °F 6¼ mi+ - 230° 230° 3 kt METAR EDDG 040450Z 23003KT 150V280 CAVOK 14/12 Q1020 NOSIG
6:20 am
V
55 °F 6¼ mi+ - 230° 230° 3 kt METAR EDDG 040420Z 23003KT 190V270 CAVOK 13/12 Q1020 NOSIG
5:50 am
V
52 °F 6¼ mi+ - 250° 250° 2 kt METAR EDDG 040350Z 25002KT CAVOK 11/11 Q1020 NOSIG
5:20 am
V
52 °F 6¼ mi+ - Var Var 1 kt METAR EDDG 040320Z VRB01KT CAVOK 11/10 Q1019 NOSIG
4:50 am
V
52 °F 6¼ mi+ - Var Var 1 kt METAR EDDG 040250Z VRB01KT CAVOK 11/10 Q1019 NOSIG
4:20 am
V
55 °F 6¼ mi+ - 260° 260° 3 kt METAR EDDG 040220Z 26003KT CAVOK 13/11 Q1019 NOSIG
3:50 am
V
52 °F 6¼ mi+ - Var Var 2 kt METAR EDDG 040150Z VRB02KT CAVOK 11/11 Q1019 NOSIG
3:20 am
V
52 °F 6¼ mi+ - Var Var 2 kt METAR EDDG 040120Z VRB02KT CAVOK 11/11 Q1019 NOSIG
2:50 am
V
54 °F 6¼ mi+ - Var Var 1 kt METAR EDDG 040050Z VRB01KT CAVOK 12/11 Q1019 NOSIG
2:20 am
V
55 °F 6¼ mi+ - Var Var 2 kt METAR EDDG 040020Z VRB02KT 9999 FEW048 13/11 Q1019 NOSIG
1:50 am
V
57 °F 6¼ mi+ - 260° 260° 3 kt METAR EDDG 032350Z 26003KT 9999 FEW048 14/12 Q1019 NOSIG
1:20 am
V
57 °F 6¼ mi+ - 260° 260° 3 kt METAR EDDG 032320Z 26003KT 9999 FEW048 14/12 Q1019 NOSIG
12:50 am
V
59 °F 6¼ mi+ - 250° 250° 2 kt METAR EDDG 032250Z 25002KT 9999 SCT048 15/12 Q1019 NOSIG
12:20 am
V
57 °F 6¼ mi+ - Var Var 1 kt METAR EDDG 032220Z VRB01KT CAVOK 14/12 Q1019 NOSIG

July 3, 2022

Time Code Weather Temp. Visibility Ceiling Wind METAR/SPECI
11:50 pm
V
59 °F 6¼ mi+ - Var Var 2 kt METAR EDDG 032150Z VRB02KT CAVOK 15/12 Q1019 NOSIG
11:20 pm
V
61 °F 6¼ mi+ - Var Var 2 kt METAR EDDG 032120Z VRB02KT CAVOK 16/12 Q1019 NOSIG
10:50 pm
V
63 °F 6¼ mi+ - 290° 290° 4 kt METAR EDDG 032050Z 29004KT CAVOK 17/12 Q1019 NOSIG
10:20 pm
V
64 °F 6¼ mi+ - 300° 300° 5 kt METAR EDDG 032020Z 30005KT 270V330 CAVOK 18/12 Q1019 NOSIG
9:50 pm
V
66 °F 6¼ mi+ - 300° 300° 8 kt METAR EDDG 031950Z 30008KT 270V330 CAVOK 19/12 Q1018 BECMG 28003KT
9:20 pm
V
68 °F 6¼ mi+ - 310° 310° 9 kt METAR EDDG 031920Z 31009KT 270V340 CAVOK 20/12 Q1018 BECMG 28003KT
8:50 pm
V
68 °F 6¼ mi+ - 300° 300° 10 kt METAR EDDG 031850Z 30010KT 270V330 CAVOK 20/12 Q1018 NOSIG
8:20 pm
V
70 °F 6¼ mi+ - 290° 290° 10 kt METAR EDDG 031820Z 29010KT 270V330 CAVOK 21/13 Q1018 NOSIG
7:50 pm
V
72 °F 6¼ mi+ - 310° 310° 8 kt METAR EDDG 031750Z 31008KT 270V340 CAVOK 22/13 Q1017 NOSIG
7:20 pm
V
73 °F 6¼ mi+ - 300° 300° 12 kt METAR EDDG 031720Z 30012KT 270V350 CAVOK 23/12 Q1017 NOSIG
6:50 pm
V
75 °F 6¼ mi+ - 280° 280° 11 kt METAR EDDG 031650Z 28011KT CAVOK 24/11 Q1017 NOSIG
6:20 pm
V
75 °F 6¼ mi+ - 260° 260° 11 kt METAR EDDG 031620Z 26011KT CAVOK 24/11 Q1017 NOSIG
5:50 pm
V
77 °F 6¼ mi+ - 270° 270° 14 kt METAR EDDG 031550Z 27014KT 240V300 CAVOK 25/11 Q1017 NOSIG
5:20 pm
V
77 °F 6¼ mi+ - 260° 260° 13 kt METAR EDDG 031520Z 26013KT CAVOK 25/10 Q1017 NOSIG
4:50 pm
V
79 °F 6¼ mi+ - 250° 250° 12 kt METAR EDDG 031450Z 25012KT 210V320 CAVOK 26/10 Q1017 NOSIG
Older data

Download our app

Easy access to all aviation weather on your mobile phone and tablet.
With many features not available on the website, like offline support and a personal airport list.

We and third parties follow your internet behavior on our website with cookies. If you continue, we assume you agree with our cookie policy. Learn more